createdAt,value
2023-05-24T00:00:53.513Z,89.79
2023-05-24T00:01:53.503Z,89.69
2023-05-24T00:02:53.563Z,90.00
2023-05-24T00:03:53.602Z,89.69
2023-05-24T00:04:53.469Z,89.07
2023-05-24T00:05:53.460Z,89.17
2023-05-24T00:06:53.446Z,89.28
2023-05-24T00:07:53.480Z,89.48
2023-05-24T00:09:26.049Z,88.76
2023-05-24T00:09:53.423Z,89.38
2023-05-24T00:10:53.410Z,89.28
2023-05-24T00:11:53.439Z,89.42
2023-05-24T00:12:53.433Z,89.62
2023-05-24T00:13:53.404Z,89.22
2023-05-24T00:14:53.392Z,89.42
2023-05-24T00:15:53.383Z,89.73
2023-05-24T00:16:53.479Z,89.52
2023-05-24T00:17:53.383Z,89.77
2023-05-24T00:18:53.353Z,89.97
2023-05-24T00:19:53.400Z,90.08
2023-05-24T00:20:53.393Z,90.14
2023-05-24T00:21:53.354Z,90.34
2023-05-24T00:22:53.321Z,90.18
2023-05-24T00:23:53.314Z,90.39
2023-05-24T00:24:53.311Z,90.59
2023-05-24T00:25:53.332Z,90.28
2023-05-24T00:26:53.314Z,90.59
2023-05-24T00:27:53.284Z,90.39
2023-05-24T00:28:53.288Z,90.59
2023-05-24T00:29:53.277Z,90.39
2023-05-24T00:30:53.281Z,90.59
2023-05-24T00:31:53.328Z,90.43
2023-05-24T00:32:53.277Z,90.90
2023-05-24T00:33:53.240Z,90.53
2023-05-24T00:34:53.227Z,90.49
2023-05-24T00:35:53.249Z,90.69
2023-05-24T00:36:53.217Z,90.49
2023-05-24T00:37:53.203Z,91.25
2023-05-24T00:38:53.201Z,91.46
2023-05-24T00:39:53.226Z,91.15
2023-05-24T00:40:53.205Z,91.62
2023-05-24T00:41:53.203Z,91.42
2023-05-24T00:42:53.168Z,91.36
2023-05-24T00:43:53.159Z,90.28
2023-05-24T00:44:53.177Z,90.28
2023-05-24T00:45:53.168Z,90.01
2023-05-24T00:46:53.133Z,89.71
2023-05-24T00:47:53.201Z,89.29
2023-05-24T00:48:53.134Z,89.09
2023-05-24T00:49:53.134Z,88.68
2023-05-24T00:50:53.104Z,88.89
2023-05-24T00:51:53.106Z,88.99
2023-05-24T00:52:54.098Z,89.29
2023-05-24T00:53:53.106Z,89.40
2023-05-24T00:54:53.099Z,89.40
2023-05-24T00:55:53.070Z,89.91
2023-05-24T00:56:53.063Z,89.81
2023-05-24T00:57:53.059Z,89.75
2023-05-24T00:58:53.071Z,90.16
2023-05-24T00:59:53.042Z,90.16
2023-05-24T01:00:53.036Z,89.85
2023-05-24T01:01:53.116Z,89.65
2023-05-24T01:02:53.088Z,89.75
2023-05-24T01:03:53.065Z,89.65
2023-05-24T01:04:53.010Z,89.54
2023-05-24T01:05:52.997Z,89.34
2023-05-24T01:06:52.990Z,89.85
2023-05-24T01:07:53.024Z,89.95
2023-05-24T01:08:53.010Z,89.79
2023-05-24T01:09:52.977Z,89.58
2023-05-24T01:10:52.964Z,89.34
2023-05-24T01:11:52.963Z,89.58
2023-05-24T01:12:52.984Z,89.44
2023-05-24T01:13:52.944Z,89.38
2023-05-24T01:14:52.946Z,89.34
2023-05-24T01:15:52.953Z,89.13
2023-05-24T01:16:52.937Z,89.03
2023-05-24T01:17:52.996Z,88.92
2023-05-24T01:18:52.903Z,88.76
2023-05-24T01:19:52.931Z,88.65
2023-05-24T01:20:52.913Z,89.07
2023-05-24T01:21:52.913Z,89.28
2023-05-24T01:22:52.914Z,89.48
2023-05-24T01:23:52.886Z,89.58
2023-05-24T01:24:52.863Z,89.79
2023-05-24T01:25:52.851Z,89.85
2023-05-24T01:26:52.866Z,89.79
2023-05-24T01:27:52.840Z,89.48
2023-05-24T01:28:52.823Z,89.58
2023-05-24T01:29:52.817Z,89.73
2023-05-24T01:30:52.813Z,89.94
2023-05-24T01:31:52.883Z,89.94
2023-05-24T01:32:52.884Z,90.00
2023-05-24T01:33:52.792Z,89.94
2023-05-24T01:34:52.783Z,89.83
2023-05-24T01:35:52.771Z,89.83
2023-05-24T01:36:52.788Z,90.10
2023-05-24T01:37:52.753Z,89.83
2023-05-24T01:38:52.754Z,90.04
2023-05-24T01:39:52.741Z,89.48
2023-05-24T01:40:52.738Z,89.62
2023-05-24T01:41:52.758Z,89.83
2023-05-24T01:42:52.720Z,89.62
2023-05-24T01:43:52.710Z,89.94
2023-05-24T01:44:52.708Z,90.00
2023-05-24T01:45:52.717Z,89.94
2023-05-24T01:46:52.815Z,89.94
2023-05-24T01:47:52.746Z,89.94
2023-05-24T01:48:52.673Z,90.04
2023-05-24T01:49:52.664Z,90.14
2023-05-24T01:50:52.677Z,89.94
2023-05-24T01:51:52.692Z,90.19
2023-05-24T01:52:52.640Z,90.55
2023-05-24T01:53:52.639Z,90.59
2023-05-24T01:54:52.649Z,91.46
2023-05-24T01:55:52.646Z,91.46
2023-05-24T01:56:52.616Z,92.08
2023-05-24T01:57:52.613Z,93.16
2023-05-24T01:58:52.613Z,93.37
2023-05-24T01:59:52.607Z,92.54
2023-05-24T02:00:53.642Z,93.37
2023-05-24T02:01:52.620Z,93.26
2023-05-24T02:02:52.698Z,92.85
2023-05-24T02:03:52.561Z,92.95
2023-05-24T02:04:52.580Z,93.16
2023-05-24T02:05:52.553Z,93.37
2023-05-24T02:06:52.551Z,93.16
2023-05-24T02:07:52.540Z,92.89
2023-05-24T02:08:52.555Z,93.20
2023-05-24T02:09:52.554Z,92.85
2023-05-24T02:10:52.514Z,92.95
2023-05-24T02:11:52.513Z,93.30
2023-05-24T02:12:52.502Z,93.41
2023-05-24T02:13:52.516Z,92.89
2023-05-24T02:14:52.507Z,93.20
2023-05-24T02:15:52.493Z,92.79
2023-05-24T02:16:52.487Z,93.14
2023-05-24T02:17:52.492Z,93.14
2023-05-24T02:18:52.491Z,93.66
2023-05-24T02:19:52.465Z,94.18
2023-05-24T02:20:52.442Z,93.87
2023-05-24T02:21:52.432Z,94.28
2023-05-24T02:22:52.429Z,94.07
2023-05-24T02:23:52.455Z,93.76
2023-05-24T02:24:52.419Z,93.76
2023-05-24T02:25:52.413Z,93.66
2023-05-24T02:26:52.411Z,94.32
2023-05-24T02:27:52.426Z,94.59
2023-05-24T02:28:52.408Z,94.59
2023-05-24T02:29:52.376Z,94.48
2023-05-24T02:30:52.384Z,94.53
2023-05-24T02:31:52.360Z,94.59
2023-05-24T02:32:52.417Z,94.48
2023-05-24T02:33:52.359Z,94.48
2023-05-24T02:34:52.344Z,94.18
2023-05-24T02:35:52.332Z,94.07
2023-05-24T02:36:52.343Z,94.73
2023-05-24T02:37:52.346Z,94.38
2023-05-24T02:38:52.317Z,95.00
2023-05-24T02:39:52.344Z,94.48
2023-05-24T02:40:52.297Z,94.59
2023-05-24T02:41:52.311Z,94.48
2023-05-24T02:42:52.302Z,94.48
2023-05-24T02:43:52.274Z,94.59
2023-05-24T02:44:52.274Z,94.48
2023-05-24T02:45:52.308Z,94.59
2023-05-24T02:46:52.274Z,94.69
2023-05-24T02:47:52.284Z,93.80
2023-05-24T02:48:52.251Z,94.94
2023-05-24T02:49:52.218Z,94.84
2023-05-24T02:50:53.248Z,94.43
2023-05-24T02:51:52.227Z,94.84
2023-05-24T02:52:52.211Z,94.89
2023-05-24T02:53:52.192Z,94.89
2023-05-24T02:54:52.188Z,94.89
2023-05-24T02:55:52.179Z,94.98
2023-05-24T02:56:52.196Z,95.19
2023-05-24T02:57:52.162Z,94.89
2023-05-24T02:58:52.156Z,94.78
2023-05-24T02:59:52.145Z,94.98
2023-05-24T03:00:52.175Z,94.98
2023-05-24T03:01:52.188Z,94.98
2023-05-24T03:02:52.173Z,94.98
2023-05-24T03:03:52.223Z,94.89
2023-05-24T03:04:52.103Z,95.14
2023-05-24T03:05:52.191Z,94.68
2023-05-24T03:06:52.091Z,94.68
2023-05-24T03:07:52.091Z,94.93
2023-05-24T03:08:52.084Z,94.93
2023-05-24T03:09:52.083Z,95.14
2023-05-24T03:10:52.084Z,95.14
2023-05-24T03:11:52.052Z,94.93
2023-05-24T03:12:52.048Z,94.47
2023-05-24T03:13:52.050Z,94.57
2023-05-24T03:14:52.065Z,94.72
2023-05-24T03:15:52.053Z,94.93
2023-05-24T03:16:52.042Z,93.89
2023-05-24T03:17:52.046Z,94.20
2023-05-24T03:18:51.998Z,94.35
2023-05-24T03:19:52.056Z,95.28
2023-05-24T03:20:51.988Z,94.81
2023-05-24T03:21:51.973Z,95.95
2023-05-24T03:22:51.973Z,96.67
2023-05-24T03:23:51.962Z,96.72
2023-05-24T03:24:51.994Z,96.82
2023-05-24T03:25:51.954Z,97.03
2023-05-24T03:26:51.953Z,97.44
2023-05-24T03:27:51.930Z,97.24
2023-05-24T03:28:51.920Z,97.34
2023-05-24T03:29:51.949Z,97.19
2023-05-24T03:30:51.910Z,96.88
2023-05-24T03:31:52.002Z,96.67
2023-05-24T03:32:51.958Z,97.09
2023-05-24T03:33:51.919Z,97.14
2023-05-24T03:34:51.917Z,96.31
2023-05-24T03:35:51.886Z,96.42
2023-05-24T03:36:51.867Z,96.15
2023-05-24T03:37:51.865Z,96.57
2023-05-24T03:38:51.877Z,96.30
2023-05-24T03:39:51.846Z,97.44
2023-05-24T03:40:51.838Z,97.34
2023-05-24T03:41:51.834Z,97.44
2023-05-24T03:42:51.822Z,97.44
2023-05-24T03:43:51.838Z,97.19
2023-05-24T03:44:51.805Z,97.50
2023-05-24T03:45:51.830Z,97.56
2023-05-24T03:46:51.803Z,96.94
2023-05-24T03:47:51.924Z,97.04
2023-05-24T03:48:51.803Z,97.00
2023-05-24T03:49:51.783Z,96.79
2023-05-24T03:50:51.772Z,96.37
2023-05-24T03:51:51.757Z,96.48
2023-05-24T03:52:51.773Z,95.75
2023-05-24T03:53:51.756Z,95.50
2023-05-24T03:54:51.739Z,95.50
2023-05-24T03:55:51.737Z,95.09
2023-05-24T03:56:51.722Z,95.25
2023-05-24T03:57:51.743Z,95.15
2023-05-24T03:58:51.709Z,94.90
2023-05-24T03:59:51.710Z,94.59
2023-05-24T04:00:51.692Z,93.97
2023-05-24T04:01:51.709Z,93.97
2023-05-24T04:02:51.765Z,93.76
2023-05-24T04:03:51.727Z,93.35
2023-05-24T04:04:51.674Z,92.83
2023-05-24T04:05:51.655Z,93.24
2023-05-24T04:06:51.646Z,93.20
2023-05-24T04:07:51.663Z,93.10
2023-05-24T04:08:51.628Z,92.38
2023-05-24T04:09:51.626Z,92.17
2023-05-24T04:10:51.614Z,91.75
2023-05-24T04:11:51.609Z,91.96
2023-05-24T04:12:51.638Z,91.96
2023-05-24T04:13:51.589Z,91.69
2023-05-24T04:14:51.581Z,91.86
2023-05-24T04:15:51.578Z,91.65
2023-05-24T04:16:51.604Z,91.96
2023-05-24T04:17:51.599Z,91.86
2023-05-24T04:18:51.676Z,91.82
2023-05-24T04:19:51.550Z,91.56
2023-05-24T04:20:51.534Z,91.11
2023-05-24T04:21:51.560Z,89.94
2023-05-24T04:22:51.544Z,88.59
2023-05-24T04:23:51.548Z,88.76
2023-05-24T04:24:51.549Z,87.07
2023-05-24T04:25:51.499Z,87.03
2023-05-24T04:26:51.516Z,85.55
2023-05-24T04:27:51.482Z,84.03
2023-05-24T04:28:51.471Z,83.20
2023-05-24T04:29:51.468Z,83.99
2023-05-24T04:30:51.463Z,82.96
2023-05-24T04:31:51.489Z,83.50
2023-05-24T04:32:51.516Z,81.82
2023-05-24T04:33:51.439Z,80.62
2023-05-24T04:34:51.430Z,79.35
2023-05-24T04:35:51.448Z,78.63
2023-05-24T04:36:51.442Z,78.60
2023-05-24T04:37:51.401Z,79.97
2023-05-24T04:38:51.404Z,80.58
2023-05-24T04:39:51.390Z,80.97
2023-05-24T04:40:51.412Z,81.42
2023-05-24T04:41:51.397Z,82.79
2023-05-24T04:42:52.383Z,83.25
2023-05-24T04:43:51.357Z,83.90
2023-05-24T04:44:51.371Z,85.17
2023-05-24T04:45:51.393Z,85.38
2023-05-24T04:46:51.394Z,85.59
2023-05-24T04:47:51.390Z,85.94
2023-05-24T04:48:51.329Z,86.04
2023-05-24T04:49:51.315Z,86.90
2023-05-24T04:50:51.339Z,87.32
2023-05-24T04:51:52.436Z,87.42
2023-05-24T04:52:51.295Z,87.73
2023-05-24T04:53:51.293Z,87.93
2023-05-24T04:54:51.304Z,87.79
2023-05-24T04:55:51.296Z,88.14
2023-05-24T04:56:51.261Z,87.83
2023-05-24T04:57:51.275Z,88.20
2023-05-24T04:58:51.257Z,88.76
2023-05-24T04:59:51.266Z,88.76
2023-05-24T05:00:51.282Z,89.17
2023-05-24T05:01:51.318Z,88.92
2023-05-24T05:02:51.286Z,89.34
2023-05-24T05:03:51.277Z,88.72
2023-05-24T05:04:51.237Z,88.92
2023-05-24T05:05:51.203Z,88.86
2023-05-24T05:06:51.190Z,89.22
2023-05-24T05:07:51.188Z,89.42
2023-05-24T05:08:51.203Z,89.89
2023-05-24T05:09:51.191Z,90.10
2023-05-24T05:10:51.168Z,90.10
2023-05-24T05:11:51.157Z,90.14
2023-05-24T05:12:51.145Z,90.45
2023-05-24T05:13:51.157Z,90.55
2023-05-24T05:14:51.158Z,90.82
2023-05-24T05:15:51.134Z,90.67
2023-05-24T05:16:51.142Z,90.16
2023-05-24T05:17:51.257Z,90.43
2023-05-24T05:18:51.123Z,90.64
2023-05-24T05:19:51.128Z,89.91
2023-05-24T05:20:51.080Z,88.89
2023-05-24T05:21:51.084Z,88.74
2023-05-24T05:22:51.074Z,88.53
2023-05-24T05:23:51.089Z,87.87
2023-05-24T05:24:51.068Z,88.02
2023-05-24T05:25:51.054Z,88.23
2023-05-24T05:26:51.045Z,88.23
2023-05-24T05:27:51.034Z,88.33
2023-05-24T05:28:51.050Z,88.33
2023-05-24T05:29:51.028Z,88.64
2023-05-24T05:30:51.011Z,88.95
2023-05-24T05:31:51.037Z,88.23
2023-05-24T05:32:51.097Z,88.39
2023-05-24T05:33:51.023Z,88.80
2023-05-24T05:34:50.970Z,88.18
2023-05-24T05:35:53.436Z,88.39
2023-05-24T05:36:50.970Z,87.98
2023-05-24T05:37:50.981Z,88.08
2023-05-24T05:38:50.941Z,88.39
2023-05-24T05:39:50.947Z,87.36
2023-05-24T05:40:50.930Z,87.15
2023-05-24T05:41:50.933Z,87.05
2023-05-24T05:42:50.941Z,88.80
2023-05-24T05:43:50.918Z,89.25
2023-05-24T05:44:50.900Z,90.45
2023-05-24T05:45:50.912Z,89.94
2023-05-24T05:46:50.882Z,89.73
2023-05-24T05:47:50.916Z,89.11
2023-05-24T05:48:50.863Z,87.92
2023-05-24T05:49:50.866Z,88.74
2023-05-24T05:50:50.846Z,88.53
2023-05-24T05:51:50.896Z,89.56
2023-05-24T05:52:50.834Z,89.87
2023-05-24T05:53:50.836Z,89.77
2023-05-24T05:54:50.810Z,90.28
2023-05-24T05:55:50.813Z,90.14
2023-05-24T05:56:50.827Z,90.03
2023-05-24T05:57:50.802Z,89.48
2023-05-24T05:58:50.783Z,89.73
2023-05-24T05:59:50.795Z,90.03
2023-05-24T06:00:50.776Z,90.39
2023-05-24T06:01:50.780Z,89.87
2023-05-24T06:02:50.834Z,90.14
2023-05-24T06:03:51.003Z,89.01
2023-05-24T06:04:50.804Z,89.31
2023-05-24T06:05:50.748Z,89.15
2023-05-24T06:06:50.742Z,89.31
2023-05-24T06:07:50.715Z,88.56
2023-05-24T06:08:50.699Z,87.69
2023-05-24T06:09:50.703Z,88.62
2023-05-24T06:10:52.848Z,87.84
2023-05-24T06:11:51.687Z,86.80
2023-05-24T06:12:50.673Z,88.04
2023-05-24T06:13:50.676Z,88.39
2023-05-24T06:14:50.671Z,88.49
2023-05-24T06:15:50.694Z,88.90
2023-05-24T06:16:50.639Z,87.46
2023-05-24T06:17:50.676Z,87.26
2023-05-24T06:19:04.807Z,86.74
2023-05-24T06:19:52.716Z,87.12
2023-05-24T06:20:50.655Z,86.80
2023-05-24T06:21:50.679Z,85.74
2023-05-24T06:22:50.603Z,85.74
2023-05-24T06:23:50.611Z,85.74
2023-05-24T06:24:50.609Z,84.95
2023-05-24T06:25:50.605Z,85.88
2023-05-24T06:26:50.575Z,86.80
2023-05-24T06:27:50.551Z,86.56
2023-05-24T06:28:50.554Z,85.84
2023-05-24T06:29:50.643Z,85.78
2023-05-24T06:30:50.544Z,85.02
2023-05-24T06:31:51.026Z,86.05
2023-05-24T06:32:50.548Z,86.35
2023-05-24T06:34:02.555Z,85.63
2023-05-24T06:34:52.535Z,85.53
2023-05-24T06:35:50.496Z,84.81
2023-05-24T06:36:50.493Z,84.50
2023-05-24T06:37:50.484Z,85.74
2023-05-24T06:38:50.529Z,87.38
2023-05-24T06:39:50.518Z,86.77
2023-05-24T06:40:50.463Z,86.80
2023-05-24T06:41:50.457Z,85.36
2023-05-24T06:42:50.447Z,86.80
2023-05-24T06:43:50.467Z,86.60
2023-05-24T06:44:50.437Z,87.01
2023-05-24T06:45:50.421Z,88.10
2023-05-24T06:46:50.447Z,86.05
2023-05-24T06:47:50.505Z,84.61
2023-05-24T06:48:50.500Z,84.40
2023-05-24T06:49:50.396Z,84.50
2023-05-24T06:50:50.395Z,84.81
2023-05-24T06:51:50.376Z,84.81
2023-05-24T06:52:50.392Z,84.71
2023-05-24T06:53:50.393Z,84.09
2023-05-24T06:54:50.372Z,83.64
2023-05-24T06:55:50.350Z,84.91
2023-05-24T06:56:50.336Z,84.36
2023-05-24T06:57:50.359Z,83.95
2023-05-24T06:58:50.324Z,84.16
2023-05-24T06:59:50.316Z,83.85
2023-05-24T07:00:50.339Z,83.61
2023-05-24T07:01:50.339Z,83.50
2023-05-24T07:02:50.345Z,83.50
2023-05-24T07:03:50.304Z,83.19
2023-05-24T07:04:50.318Z,83.29
2023-05-24T07:05:50.266Z,83.29
2023-05-24T07:06:50.256Z,84.01
2023-05-24T07:07:50.284Z,83.50
2023-05-24T07:08:50.262Z,83.50
2023-05-24T07:09:50.238Z,84.01
2023-05-24T07:10:51.237Z,83.87
2023-05-24T07:11:50.303Z,83.73
2023-05-24T07:12:50.234Z,82.23
2023-05-24T07:13:50.205Z,82.13
2023-05-24T07:14:50.213Z,81.68
2023-05-24T07:15:50.192Z,83.05
2023-05-24T07:16:50.220Z,82.23
2023-05-24T07:17:50.235Z,81.45
2023-05-24T07:18:50.165Z,82.06
2023-05-24T07:19:50.248Z,82.06
2023-05-24T07:20:50.240Z,81.65
2023-05-24T07:21:50.172Z,82.89
2023-05-24T07:22:50.140Z,83.61
2023-05-24T07:23:50.126Z,83.75
2023-05-24T07:24:50.123Z,81.55
2023-05-24T07:25:50.110Z,81.55
2023-05-24T07:26:50.135Z,81.92
2023-05-24T07:27:50.097Z,82.57
2023-05-24T07:28:50.088Z,82.23
2023-05-24T07:29:50.137Z,81.82
2023-05-24T07:30:50.432Z,81.55
2023-05-24T07:31:50.188Z,81.71
2023-05-24T07:32:50.224Z,81.92
2023-05-24T07:33:50.118Z,81.57
2023-05-24T07:34:50.136Z,81.48
2023-05-24T07:35:50.113Z,81.64
2023-05-24T07:36:50.100Z,82.26
2023-05-24T07:37:50.057Z,82.63
2023-05-24T07:38:50.013Z,83.55
2023-05-24T07:39:50.011Z,80.54
2023-05-24T07:40:50.030Z,79.82
2023-05-24T07:41:49.995Z,78.83
2023-05-24T07:42:50.009Z,79.96
2023-05-24T07:43:49.980Z,83.41
2023-05-24T07:44:50.024Z,79.93
2023-05-24T07:45:49.997Z,78.35
2023-05-24T07:46:50.060Z,78.31
2023-05-24T07:47:49.984Z,78.97
2023-05-24T07:48:49.939Z,79.58
2023-05-24T07:49:49.952Z,80.40
2023-05-24T07:50:49.919Z,79.85
2023-05-24T07:51:50.045Z,77.33
2023-05-24T07:52:49.916Z,78.28
2023-05-24T07:53:49.898Z,78.35
2023-05-24T07:54:49.918Z,78.90
2023-05-24T07:55:49.892Z,78.35
2023-05-24T07:56:49.910Z,77.84
2023-05-24T07:57:49.887Z,78.21
2023-05-24T07:58:49.860Z,77.19
2023-05-24T07:59:49.876Z,77.60
2023-05-24T08:00:49.857Z,78.21
2023-05-24T08:01:49.835Z,78.79
2023-05-24T08:02:49.881Z,76.84
2023-05-24T08:03:49.962Z,76.88
2023-05-24T08:04:49.838Z,77.12
2023-05-24T08:05:49.801Z,77.64
2023-05-24T08:06:49.815Z,78.59
2023-05-24T08:07:49.842Z,78.39
2023-05-24T08:08:49.833Z,78.83
2023-05-24T08:09:49.791Z,77.70
2023-05-24T08:10:49.782Z,77.15
2023-05-24T08:11:49.769Z,76.84
2023-05-24T08:12:49.752Z,76.71
2023-05-24T08:13:49.771Z,75.99
2023-05-24T08:14:49.730Z,76.20
2023-05-24T08:15:49.719Z,76.50
2023-05-24T08:16:49.773Z,76.81
2023-05-24T08:17:49.780Z,76.09
2023-05-24T08:18:51.888Z,76.81
2023-05-24T08:19:49.730Z,76.54
2023-05-24T08:20:49.755Z,77.36
2023-05-24T08:21:49.680Z,77.60
2023-05-24T08:22:49.705Z,76.54
2023-05-24T08:23:49.849Z,76.34
2023-05-24T08:24:49.664Z,76.54
2023-05-24T08:25:49.666Z,76.64
2023-05-24T08:26:49.645Z,75.38
2023-05-24T08:27:49.926Z,74.56
2023-05-24T08:28:49.628Z,72.65
2023-05-24T08:29:49.633Z,73.20
2023-05-24T08:30:49.628Z,74.53
2023-05-24T08:31:49.687Z,74.05
2023-05-24T08:32:49.638Z,71.08
2023-05-24T08:33:49.647Z,69.96
2023-05-24T08:34:49.583Z,71.12
2023-05-24T08:35:49.581Z,68.16
2023-05-24T08:36:49.595Z,68.01
2023-05-24T08:37:49.823Z,69.99
2023-05-24T08:38:49.558Z,71.70
2023-05-24T08:39:49.547Z,71.12
2023-05-24T08:40:49.556Z,76.06
2023-05-24T08:42:04.886Z,72.62
2023-05-24T08:42:51.703Z,70.47
2023-05-24T08:43:49.522Z,65.88
2023-05-24T08:44:49.515Z,64.83
2023-05-24T08:45:49.532Z,66.63
2023-05-24T08:46:49.570Z,65.57
2023-05-24T08:47:49.546Z,67.30
2023-05-24T08:48:49.526Z,68.84
2023-05-24T08:49:49.476Z,67.07
2023-05-24T08:50:49.492Z,68.02
2023-05-24T08:51:49.539Z,67.00
2023-05-24T08:52:49.456Z,66.53
2023-05-24T08:53:49.447Z,66.33
2023-05-24T08:54:49.437Z,65.89
2023-05-24T08:55:49.465Z,66.01
2023-05-24T08:56:49.430Z,67.64
2023-05-24T08:57:49.419Z,68.32
2023-05-24T08:58:49.408Z,68.63
2023-05-24T08:59:49.409Z,69.11
2023-05-24T09:00:49.427Z,70.23
2023-05-24T09:01:49.478Z,70.26
2023-05-24T09:02:49.404Z,70.40
2023-05-24T09:03:49.430Z,70.37
2023-05-24T09:04:49.396Z,69.96
2023-05-24T09:05:49.381Z,70.06
2023-05-24T09:06:49.350Z,69.75
2023-05-24T09:07:49.345Z,70.37
2023-05-24T09:08:49.367Z,71.25
2023-05-24T09:09:49.473Z,70.23
2023-05-24T09:10:55.432Z,70.03
2023-05-24T09:11:51.351Z,69.61
2023-05-24T09:12:49.310Z,70.16
2023-05-24T09:13:49.299Z,70.16
2023-05-24T09:14:49.322Z,71.25
2023-05-24T09:15:49.341Z,71.22
2023-05-24T09:16:49.283Z,69.99
2023-05-24T09:17:49.324Z,69.58
2023-05-24T09:18:49.284Z,70.03
2023-05-24T09:19:49.371Z,69.68
2023-05-24T09:20:49.294Z,69.14
2023-05-24T09:21:49.244Z,69.14
2023-05-24T09:22:49.225Z,70.20
2023-05-24T09:23:49.251Z,67.41
2023-05-24T09:24:49.284Z,67.54
2023-05-24T09:25:49.213Z,67.57
2023-05-24T09:26:49.219Z,68.26
2023-05-24T09:27:49.186Z,68.05
2023-05-24T09:28:49.206Z,68.49
2023-05-24T09:29:49.192Z,68.43
2023-05-24T09:30:49.167Z,66.53
2023-05-24T09:31:49.221Z,66.30
2023-05-24T09:32:49.192Z,64.02
2023-05-24T09:33:49.173Z,65.25
2023-05-24T09:34:49.140Z,66.46
2023-05-24T09:35:49.138Z,67.38
2023-05-24T09:36:49.121Z,64.42
2023-05-24T09:37:49.143Z,64.48
2023-05-24T09:38:49.127Z,65.98
2023-05-24T09:39:49.085Z,65.37
2023-05-24T09:40:49.089Z,67.54
2023-05-24T09:41:49.080Z,66.69
2023-05-24T09:42:49.108Z,66.35
2023-05-24T09:43:49.073Z,66.75
2023-05-24T09:44:49.074Z,67.65
2023-05-24T09:45:49.077Z,67.24
2023-05-24T09:46:49.053Z,68.19
2023-05-24T09:47:49.094Z,67.71
2023-05-24T09:48:49.033Z,68.33
2023-05-24T09:49:49.405Z,67.68
2023-05-24T09:50:50.008Z,66.56
2023-05-24T09:51:49.180Z,66.46
2023-05-24T09:52:49.026Z,65.98
2023-05-24T09:53:48.995Z,66.59
2023-05-24T09:54:48.996Z,65.50
2023-05-24T09:55:48.981Z,66.11
2023-05-24T09:56:48.992Z,66.83
2023-05-24T09:57:48.964Z,67.75
2023-05-24T09:58:48.960Z,66.28
2023-05-24T09:59:48.975Z,66.69
2023-05-24T10:00:49.155Z,66.08
2023-05-24T10:01:49.039Z,66.66
2023-05-24T10:02:52.898Z,67.38
2023-05-24T10:03:50.006Z,68.23
2023-05-24T10:04:49.049Z,69.11
2023-05-24T10:05:48.935Z,68.19
2023-05-24T10:06:48.935Z,67.71
2023-05-24T10:07:48.900Z,68.53
2023-05-24T10:08:48.882Z,68.63
2023-05-24T10:09:48.872Z,68.91
2023-05-24T10:10:48.900Z,68.26
2023-05-24T10:11:48.887Z,67.69
2023-05-24T10:12:48.907Z,66.06
2023-05-24T10:13:48.851Z,66.36
2023-05-24T10:14:48.834Z,66.06
2023-05-24T10:15:48.844Z,66.88
2023-05-24T10:16:48.833Z,66.33
2023-05-24T10:17:48.863Z,64.67
2023-05-24T10:18:48.812Z,64.06
2023-05-24T10:19:48.828Z,64.03
2023-05-24T10:20:49.148Z,65.56
2023-05-24T10:21:48.878Z,64.09
2023-05-24T10:22:48.783Z,64.57
2023-05-24T10:23:48.774Z,64.60
2023-05-24T10:24:48.777Z,64.20
2023-05-24T10:25:48.777Z,65.39
2023-05-24T10:26:48.754Z,63.65
2023-05-24T10:27:48.726Z,63.39
2023-05-24T10:28:48.769Z,62.04
2023-05-24T10:29:48.878Z,61.63
2023-05-24T10:30:48.768Z,60.38
2023-05-24T10:31:48.774Z,60.28
2023-05-24T10:32:48.783Z,62.72
2023-05-24T10:33:48.683Z,61.91
2023-05-24T10:34:48.701Z,61.91
2023-05-24T10:35:48.678Z,61.66
2023-05-24T10:36:48.668Z,64.54
2023-05-24T10:37:48.648Z,63.99
2023-05-24T10:38:48.640Z,65.71
2023-05-24T10:39:48.657Z,66.33
2023-05-24T10:40:48.708Z,66.16
2023-05-24T10:41:48.626Z,65.04
2023-05-24T10:42:48.617Z,64.29
2023-05-24T10:44:07.316Z,64.26
2023-05-24T10:44:50.634Z,63.01
2023-05-24T10:45:48.591Z,63.12
2023-05-24T10:46:48.667Z,61.97
2023-05-24T10:47:48.622Z,61.83
2023-05-24T10:48:48.609Z,61.30
2023-05-24T10:49:48.579Z,60.52
2023-05-24T10:50:48.562Z,59.98
2023-05-24T10:51:48.552Z,61.10
2023-05-24T10:52:48.540Z,61.47
2023-05-24T10:53:48.556Z,60.69
2023-05-24T10:55:02.871Z,62.24
2023-05-24T10:55:50.523Z,61.56
2023-05-24T10:56:49.519Z,61.76
2023-05-24T10:57:48.514Z,62.27
2023-05-24T10:58:48.522Z,62.92
2023-05-24T10:59:48.481Z,64.31
2023-05-24T11:00:48.598Z,60.22
2023-05-24T11:01:48.551Z,60.96
2023-05-24T11:02:48.528Z,61.37
2023-05-24T11:03:48.502Z,62.80
2023-05-24T11:04:48.448Z,62.18
2023-05-24T11:05:48.480Z,62.66
2023-05-24T11:06:48.441Z,63.04
2023-05-24T11:07:48.457Z,62.46
2023-05-24T11:08:48.415Z,63.24
2023-05-24T11:09:48.429Z,62.30
2023-05-24T11:10:48.401Z,62.78
2023-05-24T11:11:48.418Z,61.49
2023-05-24T11:12:48.414Z,62.04
2023-05-24T11:13:48.390Z,61.98
2023-05-24T11:14:48.379Z,57.61
2023-05-24T11:15:48.461Z,57.41
2023-05-24T11:16:48.487Z,59.54
2023-05-24T11:17:48.425Z,57.35
2023-05-24T11:18:48.338Z,56.21
2023-05-24T11:19:48.400Z,57.40
2023-05-24T11:20:48.532Z,58.04
2023-05-24T11:21:48.346Z,56.57
2023-05-24T11:22:48.325Z,58.15
2023-05-24T11:23:48.313Z,59.80
2023-05-24T11:24:48.308Z,59.77
2023-05-24T11:25:48.284Z,60.89
2023-05-24T11:26:48.315Z,59.82
2023-05-24T11:27:48.330Z,59.77
2023-05-24T11:28:48.273Z,59.23
2023-05-24T11:29:48.524Z,57.56
2023-05-24T11:30:48.293Z,60.86
2023-05-24T11:31:48.316Z,59.88
2023-05-24T11:32:48.364Z,58.58
2023-05-24T11:33:49.135Z,57.64
2023-05-24T11:34:48.224Z,58.99
2023-05-24T11:35:48.233Z,60.21
2023-05-24T11:36:48.206Z,58.69
2023-05-24T11:37:48.202Z,56.47
2023-05-24T11:38:48.190Z,56.37
2023-05-24T11:39:48.187Z,56.57
2023-05-24T11:40:48.218Z,56.57
2023-05-24T11:41:48.168Z,56.01
2023-05-24T11:42:48.191Z,58.35
2023-05-24T11:43:48.143Z,59.59
2023-05-24T11:44:48.177Z,55.93
2023-05-24T11:45:48.200Z,54.13
2023-05-24T11:46:48.135Z,54.72
2023-05-24T11:47:48.168Z,56.65
2023-05-24T11:48:48.117Z,56.49
2023-05-24T11:49:48.136Z,55.78
2023-05-24T11:50:49.689Z,59.28
2023-05-24T11:51:49.082Z,56.41
2023-05-24T11:52:48.077Z,57.50
2023-05-24T11:53:48.075Z,58.80
2023-05-24T11:54:48.096Z,56.54
2023-05-24T11:55:48.064Z,53.30
2023-05-24T11:56:48.046Z,54.18
2023-05-24T11:57:48.045Z,56.74
2023-05-24T11:58:48.090Z,57.40
2023-05-24T11:59:48.068Z,55.83
2023-05-24T12:00:48.020Z,55.73
2023-05-24T12:01:48.011Z,53.47
2023-05-24T12:02:48.156Z,55.02
2023-05-24T12:03:48.195Z,55.40
2023-05-24T12:04:48.004Z,56.72
2023-05-24T12:05:47.989Z,57.08
2023-05-24T12:06:47.979Z,57.61
2023-05-24T12:07:47.973Z,58.04
2023-05-24T12:08:47.990Z,57.54
2023-05-24T12:09:47.959Z,59.30
2023-05-24T12:10:47.950Z,59.70
2023-05-24T12:11:47.953Z,58.35
2023-05-24T12:12:47.936Z,59.16
2023-05-24T12:13:47.954Z,57.79
2023-05-24T12:14:47.917Z,56.65
2023-05-24T12:15:48.136Z,54.61
2023-05-24T12:16:47.902Z,53.93
2023-05-24T12:17:47.969Z,54.57
2023-05-24T12:19:02.285Z,57.81
2023-05-24T12:19:49.945Z,56.54
2023-05-24T12:20:47.960Z,56.04
2023-05-24T12:21:47.872Z,57.15
2023-05-24T12:22:47.893Z,56.21
2023-05-24T12:23:47.860Z,55.80
2023-05-24T12:24:47.856Z,55.66
2023-05-24T12:25:47.865Z,57.05
2023-05-24T12:26:47.829Z,55.63
2023-05-24T12:27:47.863Z,56.09
2023-05-24T12:28:47.813Z,56.11
2023-05-24T12:29:47.807Z,56.39
2023-05-24T12:30:47.801Z,56.93
2023-05-24T12:31:47.826Z,58.45
2023-05-24T12:32:47.829Z,58.51
2023-05-24T12:33:47.788Z,59.73
2023-05-24T12:34:47.775Z,60.11
2023-05-24T12:35:47.761Z,57.51
2023-05-24T12:36:47.779Z,57.41
2023-05-24T12:37:47.783Z,56.98
2023-05-24T12:38:47.737Z,57.38
2023-05-24T12:39:47.775Z,59.16
2023-05-24T12:40:57.077Z,55.20
2023-05-24T12:41:49.750Z,54.66
2023-05-24T12:42:47.704Z,53.75
2023-05-24T12:43:47.708Z,55.47
2023-05-24T12:44:47.688Z,57.59
2023-05-24T12:45:47.688Z,58.35
2023-05-24T12:46:47.722Z,58.07
2023-05-24T12:47:47.802Z,59.60
2023-05-24T12:48:47.664Z,59.98
2023-05-24T12:49:47.662Z,58.83
2023-05-24T12:50:47.683Z,56.12
2023-05-24T12:51:49.383Z,57.64
2023-05-24T12:52:48.659Z,56.49